Página principal
METAR-TAF:

METAR-TAF

Aeroportos :

Aeroporto Internacional Diori Hamani

Niamey, Níger

latitude: 13-29N, longitude: 002-10E, altura: 223 m

Observação actual do tempo

O boletim foi feito há 34 minutos, às 22:00 UTC
Vento 3 kt com direcção variável
Temperatura 25°C
Humidade 94%
Pressão 1012 hPa
Visibilidade 10 km ou mais
Poucas nuvensa uma altura de 2000 ft, Cumulonimbus.

METAR: DRRN 222200Z VRB03KT 9999 FEW020CB 25/24 Q1012 TEMPO 4000 TSRA

Hora: 23:34 (22:34 UTC)

Previsão

O boletim foi feito há 11 horas e 34 minutos, às 11:00 UTC
Previsão válida de 22 às 12 UTC a 23 às 18 UTC
Vento 8 kt de oes-sudoeste
Visibilidade 10 km ou mais
Poucas nuvensa uma altura de 2000 ft
Probabilidade 30% :
Temporariamente
de 22 às 13 UTC a 22 às 16 UTC
Nuvens dispersasa uma altura de 1400 ft
Poucas nuvensa uma altura de 2000 ft, Cumulonimbus.
trovoada

TAF: DRRN 221100Z 2212/2318 24008KT 9999 FEW020 PROB30 TEMPO 2213/2216 TS SCT014 FEW020CB

Observações e previsões do tempo de mais de 4000 aeroportos (mensagens METAR e TAF).

As estações disponíveis são os pontos amarelos e vermelhos sobre o mapa.

Mova o rato sobre o mapa para ver o nome da estação.

Depois clique no ponto para visualizar as observações e previsões meteorológicas.

Para alterar o mapa : clique nos botões verdes com uma cruz preta para aumentar o zoom; no botão verde com uma pitada de zoom; ou nas setas verdes para mapas adjacentes.


METAR-TAF: